Indiana — DD5802 — position and weather

sailwx.info

Track history (hours):
 
Tides and Currents Weather Stations Pressure Air Temp Water Temp Dewpoint Dewpoint Depression Visibility Wind Speed Wind Dir Waves Ship Positions

Indiana

Last reported at 2018-Feb-15 12:29 UTC. Time now 2018-Jul-21 01:57 UTC.
Position N 28°08' W 015°26'.
Warning: this ship's position is months out of date.

Length 11 m.

Type: Sailing vessel. MMSI: 211478030.

Date/timePositionNaut miles runAvg speedWind from/ knotsBaromVisibWave heightAir tempDewpointWater temp
2018-Feb-15 12:29N 28°08' W 015°26'0 0.4
2018-Feb-15 11:54N 28°08' W 015°25'1 3.2
2018-Feb-15 11:30N 28°07' W 015°24'2 3.2
2018-Feb-15 11:00N 28°07' W 015°23'2 3.3
2018-Feb-15 10:30N 28°07' W 015°21'2 3.2
2018-Feb-15 10:00N 28°06' W 015°19'2 3.2
2018-Feb-15 09:30N 28°06' W 015°17'2 3.3
2018-Feb-15 09:00N 28°06' W 015°15'2 3.3
2018-Feb-15 08:29N 28°06' W 015°13'2 3.4
2018-Feb-15 07:59N 28°06' W 015°11'2 3.4
2018-Feb-15 07:29N 28°06' W 015°09'2 3.2
2018-Feb-15 06:59N 28°07' W 015°08'2 3.8
2018-Feb-15 06:27N 28°07' W 015°05'1 1.7
2018-Feb-15 05:57N 28°07' W 015°04'1 2.6
2018-Feb-15 05:26N 28°06' W 015°03'2 3.2
2018-Feb-15 04:56N 28°06' W 015°01'1 3.5
2018-Feb-15 04:30N 28°06' W 014°60'2 3.3
2018-Feb-15 04:00N 28°05' W 014°58'1 2.9
2018-Feb-15 03:30N 28°05' W 014°56'3 3.4
2018-Feb-15 02:31N 28°05' W 014°52'0 3.7
2018-Feb-15 02:28N 28°05' W 014°52'2 3.9
2018-Feb-15 02:00N 28°04' W 014°50'2 4.0
2018-Feb-15 01:30N 28°04' W 014°48'2 4.0
2018-Feb-15 01:00N 28°04' W 014°46'2 4.3
2018-Feb-15 00:29N 28°04' W 014°43'2 3.6
2018-Feb-14 23:59N 28°03' W 014°41'2 4.0
2018-Feb-14 23:29N 28°03' W 014°39'2 4.4
2018-Feb-14 22:57N 28°03' W 014°36'2 4.8
2018-Feb-14 22:26N 28°03' W 014°33'2 4.8
2018-Feb-14 21:56N 28°03' W 014°31'2 4.1
2018-Feb-14 21:26N 28°03' W 014°28'2 3.5
2018-Feb-14 20:55N 28°03' W 014°26'2 3.5
2018-Feb-14 20:25N 28°03' W 014°24'  
2018-Feb-10 13:22N 28°04' W 014°55'3 5.5
2018-Feb-10 12:54N 28°04' W 014°58'2 4.9
2018-Feb-10 12:30N 28°04' W 015°01'3 5.6
2018-Feb-10 12:00N 28°04' W 015°04'2 4.4
2018-Feb-10 11:30N 28°04' W 015°06'2 3.4
2018-Feb-10 11:00N 28°05' W 015°08'2 3.6
2018-Feb-10 10:30N 28°05' W 015°10'3 5.6
2018-Feb-10 09:59N 28°05' W 015°13'3 6.4
2018-Feb-10 09:30N 28°06' W 015°17'3 6.0
2018-Feb-10 09:00N 28°06' W 015°20'3 6.0
2018-Feb-10 08:29N 28°07' W 015°23'2 3.6
2018-Feb-10 07:59N 28°08' W 015°25'0 0.6
2018-Feb-10 07:25N 28°08' W 015°26'0 0.0
2018-Feb-10 06:58N 28°08' W 015°26'0 0.0
2018-Feb-10 06:28N 28°08' W 015°26'0 0.0
2018-Feb-10 05:58N 28°08' W 015°26'0 0.0
2018-Feb-10 05:28N 28°08' W 015°26'0 0.0
2018-Feb-10 04:58N 28°08' W 015°26'0 0.0
2018-Feb-10 04:28N 28°08' W 015°26'0 0.0
2018-Feb-10 03:58N 28°08' W 015°26'0 0.0
2018-Feb-10 03:28N 28°08' W 015°26'0 0.0
2018-Feb-10 02:58N 28°08' W 015°26'0 0.0
2018-Feb-10 02:19N 28°08' W 015°26'0 0.0
2018-Feb-10 01:49N 28°08' W 015°26'0 0.0
2018-Feb-10 01:19N 28°08' W 015°26'0 0.0
2018-Feb-10 00:52N 28°08' W 015°26'0 0.0
2018-Feb-10 00:22N 28°08' W 015°26'0 0.0
2018-Feb-09 23:49N 28°08' W 015°26'0 0.0
2018-Feb-09 23:22N 28°08' W 015°26'0 0.0
2018-Feb-09 22:52N 28°08' W 015°26'0 0.0
2018-Feb-09 22:40N 28°08' W 015°26'  
Track history (hours):
 
Tides and Currents Weather Stations Pressure Air Temp Water Temp Dewpoint Dewpoint Depression Visibility Wind Speed Wind Dir Waves Ship Positions

Indiana

Last reported at 2018-Feb-15 12:29 UTC. Time now 2018-Jul-21 01:57 UTC.
Position N 28°08' W 015°26'.
Warning: this ship's position is months out of date.

Length 11 m.

Type: Sailing vessel. MMSI: 211478030.

Date/timePositionNaut miles runAvg speedWind from/ knotsBaromVisibWave heightAir tempDewpointWater temp
2018-Feb-15 12:29N 28°08' W 015°26'0 0.4
2018-Feb-15 11:54N 28°08' W 015°25'1 3.2
2018-Feb-15 11:30N 28°07' W 015°24'2 3.2
2018-Feb-15 11:00N 28°07' W 015°23'2 3.3
2018-Feb-15 10:30N 28°07' W 015°21'2 3.2
2018-Feb-15 10:00N 28°06' W 015°19'2 3.2
2018-Feb-15 09:30N 28°06' W 015°17'2 3.3
2018-Feb-15 09:00N 28°06' W 015°15'2 3.3
2018-Feb-15 08:29N 28°06' W 015°13'2 3.4
2018-Feb-15 07:59N 28°06' W 015°11'2 3.4
2018-Feb-15 07:29N 28°06' W 015°09'2 3.2
2018-Feb-15 06:59N 28°07' W 015°08'2 3.8
2018-Feb-15 06:27N 28°07' W 015°05'1 1.7
2018-Feb-15 05:57N 28°07' W 015°04'1 2.6
2018-Feb-15 05:26N 28°06' W 015°03'2 3.2
2018-Feb-15 04:56N 28°06' W 015°01'1 3.5
2018-Feb-15 04:30N 28°06' W 014°60'2 3.3
2018-Feb-15 04:00N 28°05' W 014°58'1 2.9
2018-Feb-15 03:30N 28°05' W 014°56'3 3.4
2018-Feb-15 02:31N 28°05' W 014°52'0 3.7
2018-Feb-15 02:28N 28°05' W 014°52'2 3.9
2018-Feb-15 02:00N 28°04' W 014°50'2 4.0
2018-Feb-15 01:30N 28°04' W 014°48'2 4.0
2018-Feb-15 01:00N 28°04' W 014°46'2 4.3
2018-Feb-15 00:29N 28°04' W 014°43'2 3.6
2018-Feb-14 23:59N 28°03' W 014°41'2 4.0
2018-Feb-14 23:29N 28°03' W 014°39'2 4.4
2018-Feb-14 22:57N 28°03' W 014°36'2 4.8
2018-Feb-14 22:26N 28°03' W 014°33'2 4.8
2018-Feb-14 21:56N 28°03' W 014°31'2 4.1
2018-Feb-14 21:26N 28°03' W 014°28'2 3.5
2018-Feb-14 20:55N 28°03' W 014°26'2 3.5
2018-Feb-14 20:25N 28°03' W 014°24'  
2018-Feb-10 13:22N 28°04' W 014°55'3 5.5
2018-Feb-10 12:54N 28°04' W 014°58'2 4.9
2018-Feb-10 12:30N 28°04' W 015°01'3 5.6
2018-Feb-10 12:00N 28°04' W 015°04'2 4.4
2018-Feb-10 11:30N 28°04' W 015°06'2 3.4
2018-Feb-10 11:00N 28°05' W 015°08'2 3.6
2018-Feb-10 10:30N 28°05' W 015°10'3 5.6
2018-Feb-10 09:59N 28°05' W 015°13'3 6.4
2018-Feb-10 09:30N 28°06' W 015°17'3 6.0
2018-Feb-10 09:00N 28°06' W 015°20'3 6.0
2018-Feb-10 08:29N 28°07' W 015°23'2 3.6
2018-Feb-10 07:59N 28°08' W 015°25'0 0.6
2018-Feb-10 07:25N 28°08' W 015°26'0 0.0
2018-Feb-10 06:58N 28°08' W 015°26'0 0.0
2018-Feb-10 06:28N 28°08' W 015°26'0 0.0
2018-Feb-10 05:58N 28°08' W 015°26'0 0.0
2018-Feb-10 05:28N 28°08' W 015°26'0 0.0
2018-Feb-10 04:58N 28°08' W 015°26'0 0.0
2018-Feb-10 04:28N 28°08' W 015°26'0 0.0
2018-Feb-10 03:58N 28°08' W 015°26'0 0.0
2018-Feb-10 03:28N 28°08' W 015°26'0 0.0
2018-Feb-10 02:58N 28°08' W 015°26'0 0.0
2018-Feb-10 02:19N 28°08' W 015°26'0 0.0
2018-Feb-10 01:49N 28°08' W 015°26'0 0.0
2018-Feb-10 01:19N 28°08' W 015°26'0 0.0
2018-Feb-10 00:52N 28°08' W 015°26'0 0.0
2018-Feb-10 00:22N 28°08' W 015°26'0 0.0
2018-Feb-09 23:49N 28°08' W 015°26'0 0.0
2018-Feb-09 23:22N 28°08' W 015°26'0 0.0
2018-Feb-09 22:52N 28°08' W 015°26'0 0.0
2018-Feb-09 22:40N 28°08' W 015°26'  

Dump ship's entire track history